Time;durP1;ratioP1;P1;durP2;ratioP2;P2;SDS_P1;SDS_P2;PMS_P1;PMS_P2;Temp;Humidity;BMP_temperature;BMP_pressure;BME280_temperature;BME280_humidity;BME280_pressure;Samples;Min_cycle;Max_cycle;Signal;HPM_P1;HPM_P2
2023/04/04 00:00:18;;;;;;;4.03;2.27;;;;;;;;;;5047986;28;20946;-76
2023/04/04 00:02:45;;;;;;;3.57;2.27;;;;;;;;;;5046123;28;20205;-76
2023/04/04 00:05:11;;;;;;;4.13;2.43;;;;;;;;;;5048806;28;20185;-76
2023/04/04 00:07:37;;;;;;;4.93;2.17;;;;;;;;;;5048358;28;20177;-76
2023/04/04 00:10:10;;;;;;;3.80;2.40;;;;;;;;;;5015548;28;20204;-76
2023/04/04 00:12:36;;;;;;;4.83;2.30;;;;;;;;;;5037494;28;20201;-76
2023/04/04 00:15:02;;;;;;;3.53;2.40;;;;;;;;;;5046920;28;20188;-76
2023/04/04 00:17:28;;;;;;;4.83;2.50;;;;;;;;;;5046648;28;20185;-76
2023/04/04 00:19:56;;;;;;;4.87;2.50;;;;;;;;;;5048977;28;20288;-76
2023/04/04 00:22:23;;;;;;;3.50;2.30;;;;;;;;;;5048727;28;20228;-76
2023/04/04 00:24:49;;;;;;;4.73;2.23;;;;;;;;;;5046002;28;20830;-76
2023/04/04 00:27:15;;;;;;;6.10;2.40;;;;;;;;;;5046479;28;20741;-76
2023/04/04 00:29:42;;;;;;;4.47;2.10;;;;;;;;;;5046264;28;20181;-76
2023/04/04 00:32:08;;;;;;;6.60;2.30;;;;;;;;;;5038671;28;20255;-76
2023/04/04 00:34:35;;;;;;;4.13;2.47;;;;;;;;;;5043015;28;21244;-79
2023/04/04 00:37:01;;;;;;;3.63;2.20;;;;;;;;;;5048068;28;20228;-79
2023/04/04 00:39:27;;;;;;;5.33;2.60;;;;;;;;;;5041834;28;20205;-79
2023/04/04 00:41:53;;;;;;;3.53;2.57;;;;;;;;;;5048183;28;20691;-79
2023/04/04 00:44:20;;;;;;;4.20;2.40;;;;;;;;;;5049206;28;20182;-79
2023/04/04 00:46:46;;;;;;;4.37;2.40;;;;;;;;;;5048172;28;20757;-81
2023/04/04 00:49:15;;;;;;;3.90;2.47;;;;;;;;;;5048880;28;20268;-78
2023/04/04 00:51:41;;;;;;;3.70;2.90;;;;;;;;;;5048182;28;20253;-79
2023/04/04 00:54:08;;;;;;;5.20;3.70;;;;;;;;;;5054581;28;20192;-79
2023/04/04 00:56:37;;;;;;;4.83;3.50;;;;;;;;;;5048763;28;20265;-79
2023/04/04 00:59:03;;;;;;;5.47;3.50;;;;;;;;;;5047386;28;20665;-79
2023/04/04 01:01:31;;;;;;;4.80;2.90;;;;;;;;;;5048915;28;20257;-79
2023/04/04 01:03:58;;;;;;;3.67;2.47;;;;;;;;;;5046750;28;20676;-79
2023/04/04 01:06:26;;;;;;;2.50;2.13;;;;;;;;;;5046068;28;20182;-79
2023/04/04 01:08:54;;;;;;;3.37;2.30;;;;;;;;;;5048022;28;20194;-79
2023/04/04 01:11:20;;;;;;;3.80;2.40;;;;;;;;;;5047506;28;20224;-78
2023/04/04 01:13:47;;;;;;;3.60;2.27;;;;;;;;;;5046848;28;20189;-78
2023/04/04 01:16:15;;;;;;;5.13;2.40;;;;;;;;;;5047783;28;20251;-78
2023/04/04 01:18:42;;;;;;;3.33;2.40;;;;;;;;;;5048932;28;20734;-78
2023/04/04 01:21:12;;;;;;;4.80;2.60;;;;;;;;;;5047984;28;20209;-79
2023/04/04 01:23:47;;;;;;;4.47;2.63;;;;;;;;;;5027273;28;20179;-76
2023/04/04 01:26:14;;;;;;;3.00;2.30;;;;;;;;;;5062646;28;20235;-76
2023/04/04 01:28:40;;;;;;;4.67;2.30;;;;;;;;;;5047962;28;20196;-76
2023/04/04 01:31:12;;;;;;;3.73;2.20;;;;;;;;;;5047839;28;20578;-76
2023/04/04 01:33:41;;;;;;;3.73;2.17;;;;;;;;;;5046942;28;20260;-76
2023/04/04 01:36:18;;;;;;;6.67;3.30;;;;;;;;;;5047154;28;20272;-76
2023/04/04 01:38:44;;;;;;;4.53;2.40;;;;;;;;;;5043528;28;20181;-78
2023/04/04 01:41:12;;;;;;;4.20;2.10;;;;;;;;;;5048107;28;20202;-76
2023/04/04 01:43:46;;;;;;;4.20;2.30;;;;;;;;;;5052747;28;20235;-76
2023/04/04 01:46:13;;;;;;;3.50;2.03;;;;;;;;;;5046840;28;20327;-76
2023/04/04 01:48:40;;;;;;;3.27;1.80;;;;;;;;;;5046930;28;20182;-76
2023/04/04 01:51:07;;;;;;;3.80;2.10;;;;;;;;;;5055508;28;20209;-78
2023/04/04 01:53:35;;;;;;;3.87;2.43;;;;;;;;;;5045948;28;20193;-79
2023/04/04 01:56:01;;;;;;;3.47;2.43;;;;;;;;;;5047037;28;20262;-79
2023/04/04 01:58:27;;;;;;;3.37;2.07;;;;;;;;;;5023343;28;20541;-79
2023/04/04 02:00:53;;;;;;;3.40;2.17;;;;;;;;;;5047491;28;20229;-79
2023/04/04 02:03:20;;;;;;;3.10;2.10;;;;;;;;;;5042913;28;20229;-78
2023/04/04 02:05:46;;;;;;;3.77;2.37;;;;;;;;;;5047064;28;20265;-79
2023/04/04 02:08:14;;;;;;;3.27;2.03;;;;;;;;;;5045792;28;20182;-76
2023/04/04 02:10:47;;;;;;;3.83;2.13;;;;;;;;;;5044902;28;20200;-76
2023/04/04 02:13:13;;;;;;;4.67;2.30;;;;;;;;;;5045903;28;20190;-76
2023/04/04 02:15:45;;;;;;;4.00;2.20;;;;;;;;;;5045226;28;20194;-76
2023/04/04 02:18:11;;;;;;;3.30;2.13;;;;;;;;;;5035729;28;20184;-76
2023/04/04 02:20:37;;;;;;;3.13;2.03;;;;;;;;;;5045639;28;20243;-76
2023/04/04 02:23:03;;;;;;;3.83;2.17;;;;;;;;;;5043903;28;20221;-76
2023/04/04 02:25:29;;;;;;;5.37;2.20;;;;;;;;;;5045362;28;20695;-76
2023/04/04 02:27:56;;;;;;;3.00;1.90;;;;;;;;;;5044774;28;20212;-76
2023/04/04 02:30:22;;;;;;;4.90;2.27;;;;;;;;;;5047056;28;20201;-76
2023/04/04 02:32:49;;;;;;;2.67;1.80;;;;;;;;;;5044271;28;20237;-76
2023/04/04 02:35:18;;;;;;;2.77;2.03;;;;;;;;;;5045894;28;21162;-76
2023/04/04 02:37:47;;;;;;;4.03;2.40;;;;;;;;;;5046649;28;20277;-76
2023/04/04 02:40:20;;;;;;;4.07;2.30;;;;;;;;;;5021263;28;20209;-76
2023/04/04 02:42:46;;;;;;;3.63;2.13;;;;;;;;;;5044506;28;20820;-76
2023/04/04 02:45:13;;;;;;;4.43;2.40;;;;;;;;;;5046331;28;20966;-76
2023/04/04 02:47:42;;;;;;;4.17;2.37;;;;;;;;;;5043146;28;20174;-76
2023/04/04 02:50:12;;;;;;;2.93;2.17;;;;;;;;;;5044404;28;20269;-76
2023/04/04 02:52:39;;;;;;;6.03;3.60;;;;;;;;;;5044599;28;20212;-76
2023/04/04 02:55:11;;;;;;;6.30;2.20;;;;;;;;;;5045241;28;20192;-76
2023/04/04 02:57:40;;;;;;;3.07;2.20;;;;;;;;;;5046921;28;20170;-76
2023/04/04 03:00:07;;;;;;;4.13;2.10;;;;;;;;;;5045525;28;20209;-76
2023/04/04 03:02:33;;;;;;;3.50;2.30;;;;;;;;;;5026978;28;20263;-76
2023/04/04 03:04:59;;;;;;;2.33;1.73;;;;;;;;;;5046574;28;20182;-76
2023/04/04 03:07:26;;;;;;;3.40;1.93;;;;;;;;;;5052409;28;20186;-76
2023/04/04 03:09:53;;;;;;;2.77;2.00;;;;;;;;;;5032642;28;20185;-76
2023/04/04 03:12:22;;;;;;;5.33;2.50;;;;;;;;;;5049899;28;20305;-76
2023/04/04 03:14:49;;;;;;;3.17;2.20;;;;;;;;;;5050105;28;20200;-76
2023/04/04 03:17:17;;;;;;;4.10;2.30;;;;;;;;;;5042023;28;20186;-76
2023/04/04 03:19:44;;;;;;;4.53;2.60;;;;;;;;;;5050301;28;20366;-76
2023/04/04 03:22:11;;;;;;;3.00;2.33;;;;;;;;;;5047987;28;20355;-76
2023/04/04 03:24:37;;;;;;;4.43;2.60;;;;;;;;;;5032100;28;20205;-76
2023/04/04 03:27:03;;;;;;;6.23;2.73;;;;;;;;;;5031612;28;20189;-76
2023/04/04 03:29:31;;;;;;;4.43;2.43;;;;;;;;;;5046569;28;20182;-76
2023/04/04 03:31:57;;;;;;;3.37;1.93;;;;;;;;;;5048903;28;20202;-76
2023/04/04 03:34:24;;;;;;;4.20;2.20;;;;;;;;;;5049844;28;20205;-76
2023/04/04 03:36:52;;;;;;;4.27;2.30;;;;;;;;;;5049428;28;20563;-76
2023/04/04 03:39:19;;;;;;;3.97;2.30;;;;;;;;;;5048529;28;20197;-76
2023/04/04 03:41:46;;;;;;;3.47;2.03;;;;;;;;;;5044549;28;20201;-76
2023/04/04 03:44:12;;;;;;;2.90;2.10;;;;;;;;;;5033738;28;20281;-76
2023/04/04 03:46:39;;;;;;;2.30;2.10;;;;;;;;;;5045986;28;20178;-76
2023/04/04 03:49:05;;;;;;;3.97;2.23;;;;;;;;;;5048763;28;20190;-76
2023/04/04 03:51:31;;;;;;;3.23;2.37;;;;;;;;;;5044404;28;20213;-76
2023/04/04 03:53:57;;;;;;;4.33;2.40;;;;;;;;;;5043880;28;20705;-76
2023/04/04 03:56:23;;;;;;;2.97;2.03;;;;;;;;;;5060079;28;20293;-76
2023/04/04 03:58:49;;;;;;;3.53;2.10;;;;;;;;;;5047774;28;20687;-76
2023/04/04 04:01:19;;;;;;;3.33;2.10;;;;;;;;;;5049487;28;20197;-76
2023/04/04 04:03:46;;;;;;;3.60;2.40;;;;;;;;;;5048399;28;20209;-76
2023/04/04 04:06:12;;;;;;;4.33;2.20;;;;;;;;;;5047965;28;20193;-76
2023/04/04 04:08:39;;;;;;;2.93;2.17;;;;;;;;;;5050457;28;20192;-76
2023/04/04 04:11:06;;;;;;;3.37;2.10;;;;;;;;;;5035075;28;20599;-76
2023/04/04 04:13:38;;;;;;;4.70;2.20;;;;;;;;;;5048342;28;20443;-76
2023/04/04 04:16:05;;;;;;;4.73;2.27;;;;;;;;;;5065086;28;20193;-76
2023/04/04 04:18:32;;;;;;;3.17;2.40;;;;;;;;;;5040877;28;20185;-76
2023/04/04 04:21:01;;;;;;;4.00;2.17;;;;;;;;;;5047385;28;20589;-76
2023/04/04 04:23:27;;;;;;;3.87;2.13;;;;;;;;;;5061836;28;20174;-76
2023/04/04 04:25:53;;;;;;;3.30;2.07;;;;;;;;;;5032774;28;20316;-76
2023/04/04 04:28:23;;;;;;;5.03;2.40;;;;;;;;;;5052267;28;20236;-76
2023/04/04 04:30:50;;;;;;;3.93;2.37;;;;;;;;;;5042040;28;20216;-76
2023/04/04 04:33:20;;;;;;;4.63;2.83;;;;;;;;;;5046632;28;20274;-76
2023/04/04 04:36:00;;;;;;;4.33;2.27;;;;;;;;;;5057887;28;20193;-76
2023/04/04 04:38:30;;;;;;;2.60;1.87;;;;;;;;;;5040666;28;20198;-76
2023/04/04 04:40:56;;;;;;;5.53;2.27;;;;;;;;;;5039091;28;20236;-76
2023/04/04 04:43:28;;;;;;;5.73;2.27;;;;;;;;;;5046581;28;20185;-76
2023/04/04 04:45:55;;;;;;;3.97;2.27;;;;;;;;;;5048696;28;20292;-76
2023/04/04 04:48:21;;;;;;;4.85;2.22;;;;;;;;;;5046406;28;20506;-76
2023/04/04 04:50:52;;;;;;;2.60;2.30;;;;;;;;;;5047263;28;20673;-77
2023/04/04 04:53:30;;;;;;;6.00;2.20;;;;;;;;;;5030301;28;20671;-77
2023/04/04 04:55:57;;;;;;;5.27;2.23;;;;;;;;;;5048056;28;20209;-77
2023/04/04 04:58:23;;;;;;;6.03;2.50;;;;;;;;;;5048882;28;20181;-77
2023/04/04 05:00:59;;;;;;;4.20;2.20;;;;;;;;;;5047191;28;20225;-77
2023/04/04 05:03:33;;;;;;;4.67;2.20;;;;;;;;;;5029284;28;20228;-77
2023/04/04 05:06:02;;;;;;;5.80;2.57;;;;;;;;;;5029551;28;20587;-77
2023/04/04 05:08:28;;;;;;;3.93;2.40;;;;;;;;;;5030916;28;20178;-77
2023/04/04 05:11:14;;;;;;;3.67;2.23;;;;;;;;;;5034895;28;20232;-77
2023/04/04 05:13:41;;;;;;;3.60;2.60;;;;;;;;;;5046060;28;20185;-77
2023/04/04 05:16:07;;;;;;;4.43;2.30;;;;;;;;;;5046340;28;20186;-77
2023/04/04 05:18:35;;;;;;;2.77;2.20;;;;;;;;;;5028622;28;20232;-77
2023/04/04 05:21:02;;;;;;;3.50;2.00;;;;;;;;;;5042597;28;20222;-77
2023/04/04 05:23:29;;;;;;;5.13;2.37;;;;;;;;;;5044496;28;20190;-77
2023/04/04 05:25:56;;;;;;;4.37;2.20;;;;;;;;;;5063054;28;20653;-77
2023/04/04 05:28:25;;;;;;;3.37;2.20;;;;;;;;;;5046097;28;20190;-76
2023/04/04 05:30:55;;;;;;;3.30;2.10;;;;;;;;;;5055455;28;20681;-76
2023/04/04 05:33:25;;;;;;;4.50;2.40;;;;;;;;;;5053052;28;20296;-76
2023/04/04 05:36:01;;;;;;;3.57;2.20;;;;;;;;;;5029629;28;20272;-76
2023/04/04 05:38:30;;;;;;;2.97;2.00;;;;;;;;;;5026984;28;20190;-76
2023/04/04 05:40:56;;;;;;;5.73;2.17;;;;;;;;;;5045334;28;20274;-76
2023/04/04 05:43:24;;;;;;;2.20;1.90;;;;;;;;;;5036963;28;20649;-76
2023/04/04 05:45:57;;;;;;;4.27;2.30;;;;;;;;;;5045700;28;20590;-76
2023/04/04 05:48:25;;;;;;;4.07;3.03;;;;;;;;;;5046312;28;20186;-76
2023/04/04 05:50:52;;;;;;;6.97;3.27;;;;;;;;;;5047115;28;20240;-76
2023/04/04 05:53:27;;;;;;;3.70;2.50;;;;;;;;;;5046903;28;20279;-76
2023/04/04 05:55:53;;;;;;;3.07;2.33;;;;;;;;;;5044753;28;20629;-76
2023/04/04 05:58:21;;;;;;;4.30;2.50;;;;;;;;;;5047191;28;20213;-76
2023/04/04 06:00:52;;;;;;;4.20;2.67;;;;;;;;;;5039326;28;20239;-76
2023/04/04 06:03:19;;;;;;;2.50;2.20;;;;;;;;;;5046277;28;20264;-76
2023/04/04 06:05:49;;;;;;;4.47;2.23;;;;;;;;;;5048046;28;20174;-76
2023/04/04 06:08:16;;;;;;;2.50;2.23;;;;;;;;;;5046959;28;20188;-76
2023/04/04 06:10:44;;;;;;;3.10;2.33;;;;;;;;;;5046758;28;20259;-76
2023/04/04 06:13:10;;;;;;;3.00;2.27;;;;;;;;;;5030410;28;20251;-78
2023/04/04 06:15:37;;;;;;;4.43;2.50;;;;;;;;;;5044117;28;20185;-74
2023/04/04 06:18:03;;;;;;;3.70;2.10;;;;;;;;;;5031054;28;20205;-75
2023/04/04 06:20:29;;;;;;;2.97;2.20;;;;;;;;;;5050780;28;20584;-78
2023/04/04 06:22:55;;;;;;;3.93;2.20;;;;;;;;;;5051248;28;20735;-76
2023/04/04 06:25:21;;;;;;;3.23;2.10;;;;;;;;;;5050457;28;20178;-76
2023/04/04 06:27:48;;;;;;;6.13;2.63;;;;;;;;;;5051880;28;20213;-76
2023/04/04 06:30:15;;;;;;;3.43;2.00;;;;;;;;;;5052293;28;20652;-76
2023/04/04 06:32:43;;;;;;;3.47;2.30;;;;;;;;;;5045679;28;20213;-80
2023/04/04 06:35:14;;;;;;;2.90;2.13;;;;;;;;;;5048419;28;20185;-76
2023/04/04 06:37:56;;;;;;;3.83;2.40;;;;;;;;;;5047225;28;20186;-77
2023/04/04 06:40:24;;;;;;;3.03;2.47;;;;;;;;;;5046786;28;20256;-76
2023/04/04 06:42:52;;;;;;;4.50;2.40;;;;;;;;;;5041571;28;20202;-75
2023/04/04 06:45:20;;;;;;;4.67;2.30;;;;;;;;;;5047249;28;20210;-84
2023/04/04 06:47:48;;;;;;;4.30;2.70;;;;;;;;;;5029525;28;20182;-78
2023/04/04 06:50:18;;;;;;;3.77;2.33;;;;;;;;;;5052244;28;20217;-79
2023/04/04 06:52:47;;;;;;;5.30;2.70;;;;;;;;;;5048459;28;20225;-77
2023/04/04 06:55:13;;;;;;;3.83;2.30;;;;;;;;;;5051368;28;20197;-74
2023/04/04 06:57:40;;;;;;;3.30;2.20;;;;;;;;;;5053839;28;20186;-77
2023/04/04 07:00:08;;;;;;;4.63;2.30;;;;;;;;;;5036222;28;20209;-79
2023/04/04 07:02:34;;;;;;;4.33;2.40;;;;;;;;;;5060704;28;20594;-81
2023/04/04 07:05:00;;;;;;;3.37;2.30;;;;;;;;;;5071846;28;20182;-80
2023/04/04 07:07:28;;;;;;;3.57;2.40;;;;;;;;;;5034236;28;20259;-80
2023/04/04 07:09:54;;;;;;;3.70;2.37;;;;;;;;;;5054833;28;20186;-80
2023/04/04 07:12:20;;;;;;;6.10;2.67;;;;;;;;;;5054986;28;20197;-80
2023/04/04 07:14:46;;;;;;;3.07;2.30;;;;;;;;;;5056100;28;20189;-79
2023/04/04 07:17:13;;;;;;;6.37;4.30;;;;;;;;;;5052461;28;20709;-80
2023/04/04 07:19:39;;;;;;;4.83;2.40;;;;;;;;;;5053566;28;20684;-80
2023/04/04 07:22:05;;;;;;;4.23;2.50;;;;;;;;;;5069728;28;20681;-79
2023/04/04 07:24:31;;;;;;;3.70;2.30;;;;;;;;;;5054773;28;20282;-79
2023/04/04 07:26:58;;;;;;;5.23;2.37;;;;;;;;;;5043461;28;20254;-80
2023/04/04 07:29:24;;;;;;;3.27;2.20;;;;;;;;;;5036946;28;20244;-80
2023/04/04 07:31:50;;;;;;;3.37;2.40;;;;;;;;;;5052679;28;20206;-80
2023/04/04 07:34:16;;;;;;;3.57;2.30;;;;;;;;;;5045941;28;20191;-80
2023/04/04 07:36:42;;;;;;;4.00;2.43;;;;;;;;;;5053318;28;20239;-80
2023/04/04 07:39:08;;;;;;;4.73;2.80;;;;;;;;;;5035423;28;20284;-80
2023/04/04 07:41:35;;;;;;;2.43;2.13;;;;;;;;;;5052866;28;20194;-79
2023/04/04 07:44:01;;;;;;;3.07;2.20;;;;;;;;;;5053028;28;20192;-80
2023/04/04 07:46:27;;;;;;;2.23;1.90;;;;;;;;;;5051273;28;20259;-81
2023/04/04 07:48:53;;;;;;;3.53;2.40;;;;;;;;;;5036155;28;20197;-81
2023/04/04 07:51:27;;;;;;;3.57;2.23;;;;;;;;;;5051236;28;20748;-81
2023/04/04 07:53:53;;;;;;;3.80;2.50;;;;;;;;;;5033711;28;20703;-81
2023/04/04 07:56:20;;;;;;;3.07;2.33;;;;;;;;;;5045939;28;20651;-82
2023/04/04 07:58:46;;;;;;;5.43;2.50;;;;;;;;;;5052316;28;20189;-79
2023/04/04 08:01:13;;;;;;;3.30;2.30;;;;;;;;;;5050283;28;20305;-79
2023/04/04 08:03:39;;;;;;;3.23;2.27;;;;;;;;;;5047998;28;20190;-81
2023/04/04 08:06:06;;;;;;;3.00;2.30;;;;;;;;;;5052796;28;20198;-80
2023/04/04 08:08:32;;;;;;;4.93;2.37;;;;;;;;;;5060300;28;20182;-80
2023/04/04 08:11:02;;;;;;;4.33;2.50;;;;;;;;;;5051199;28;20206;-80
2023/04/04 08:13:28;;;;;;;2.83;2.10;;;;;;;;;;5051742;28;20250;-80
2023/04/04 08:15:54;;;;;;;3.50;2.17;;;;;;;;;;5051978;28;20277;-80
2023/04/04 08:18:20;;;;;;;3.17;1.87;;;;;;;;;;5051921;28;20178;-81
2023/04/04 08:20:46;;;;;;;2.80;1.90;;;;;;;;;;5053335;28;20539;-80
2023/04/04 08:23:13;;;;;;;2.83;2.00;;;;;;;;;;5051625;28;20186;-80
2023/04/04 08:25:39;;;;;;;4.20;2.10;;;;;;;;;;5029433;28;20189;-82
2023/04/04 08:28:05;;;;;;;3.53;1.87;;;;;;;;;;5052182;28;20185;-80
2023/04/04 08:30:31;;;;;;;2.40;1.80;;;;;;;;;;5053781;28;20196;-80
2023/04/04 08:32:57;;;;;;;2.93;1.90;;;;;;;;;;5050771;28;20201;-80
2023/04/04 08:35:23;;;;;;;4.03;2.10;;;;;;;;;;5050299;28;20201;-80
2023/04/04 08:37:49;;;;;;;3.30;2.10;;;;;;;;;;5051885;28;20714;-80
2023/04/04 08:40:15;;;;;;;2.60;2.20;;;;;;;;;;5048195;28;20226;-80
2023/04/04 08:42:43;;;;;;;3.03;2.07;;;;;;;;;;5050755;28;20209;-80
2023/04/04 08:45:10;;;;;;;3.33;2.37;;;;;;;;;;5051567;28;20251;-80
2023/04/04 08:47:37;;;;;;;3.60;2.23;;;;;;;;;;5035360;28;20201;-80
2023/04/04 08:50:04;;;;;;;2.20;1.80;;;;;;;;;;5051130;28;20705;-80
2023/04/04 08:52:32;;;;;;;4.17;1.90;;;;;;;;;;5050803;28;20312;-80
2023/04/04 08:54:58;;;;;;;3.83;2.13;;;;;;;;;;5042927;28;20201;-80
2023/04/04 08:57:24;;;;;;;3.00;2.10;;;;;;;;;;5035104;28;20186;-80
2023/04/04 08:59:50;;;;;;;4.33;2.27;;;;;;;;;;5048413;28;20201;-80
2023/04/04 09:02:22;;;;;;;4.17;2.30;;;;;;;;;;5049691;28;20198;-80
2023/04/04 09:04:48;;;;;;;3.53;2.00;;;;;;;;;;5022744;28;20186;-80
2023/04/04 09:07:16;;;;;;;4.93;1.90;;;;;;;;;;5050442;28;20198;-80
2023/04/04 09:09:45;;;;;;;4.07;2.37;;;;;;;;;;5048166;28;20190;-80
2023/04/04 09:12:13;;;;;;;4.77;2.27;;;;;;;;;;5033826;28;20241;-80
2023/04/04 09:14:40;;;;;;;4.70;2.20;;;;;;;;;;5052460;28;20189;-80
2023/04/04 09:17:08;;;;;;;2.80;2.03;;;;;;;;;;5032374;28;20185;-80
2023/04/04 09:19:35;;;;;;;3.53;2.13;;;;;;;;;;5050759;28;20202;-79
2023/04/04 09:22:01;;;;;;;2.30;1.90;;;;;;;;;;5060811;28;20198;-81
2023/04/04 09:24:40;;;;;;;3.47;2.30;;;;;;;;;;5056653;28;20178;-79
2023/04/04 09:27:10;;;;;;;2.83;1.97;;;;;;;;;;5044427;28;20181;-79
2023/04/04 09:29:40;;;;;;;2.63;2.00;;;;;;;;;;5031303;28;20608;-79
2023/04/04 09:32:16;;;;;;;3.50;2.10;;;;;;;;;;5049055;28;20205;-78
2023/04/04 09:34:43;;;;;;;2.77;2.00;;;;;;;;;;5047115;28;20259;-83
2023/04/04 09:37:13;;;;;;;2.93;2.00;;;;;;;;;;5050850;28;20217;-81
2023/04/04 09:39:39;;;;;;;4.80;2.30;;;;;;;;;;5051445;28;20198;-82
2023/04/04 09:42:06;;;;;;;3.40;1.90;;;;;;;;;;5049394;28;20209;-82
2023/04/04 09:44:33;;;;;;;2.20;1.80;;;;;;;;;;5033314;28;20664;-82
2023/04/04 09:47:18;;;;;;;3.47;1.90;;;;;;;;;;5050770;28;20189;-80
2023/04/04 09:49:44;;;;;;;3.37;2.07;;;;;;;;;;5036367;28;20255;-81
2023/04/04 09:52:17;;;;;;;3.43;2.50;;;;;;;;;;5043377;28;20214;-82
2023/04/04 09:54:44;;;;;;;3.37;1.97;;;;;;;;;;5013919;28;20193;-80
2023/04/04 09:57:10;;;;;;;5.20;2.23;;;;;;;;;;5051194;28;20177;-79
2023/04/04 09:59:36;;;;;;;2.23;1.97;;;;;;;;;;5049175;28;20202;-78
2023/04/04 10:02:02;;;;;;;4.07;2.20;;;;;;;;;;5046969;28;20678;-80
2023/04/04 10:04:31;;;;;;;4.87;2.33;;;;;;;;;;5047952;28;20255;-81
2023/04/04 10:06:59;;;;;;;4.53;2.33;;;;;;;;;;5029676;28;20554;-81
2023/04/04 10:09:27;;;;;;;3.33;2.20;;;;;;;;;;5042997;28;20582;-79
2023/04/04 10:12:07;;;;;;;4.07;2.13;;;;;;;;;;5046989;28;20217;-83
2023/04/04 10:14:36;;;;;;;5.40;2.23;;;;;;;;;;5048377;28;20194;-78
2023/04/04 10:17:09;;;;;;;4.97;2.23;;;;;;;;;;5048770;28;20189;-81
2023/04/04 10:19:38;;;;;;;2.50;2.10;;;;;;;;;;5051252;28;20201;-80
2023/04/04 10:22:05;;;;;;;3.40;2.40;;;;;;;;;;5052998;28;20198;-81
2023/04/04 10:24:33;;;;;;;4.30;2.33;;;;;;;;;;5054982;28;20239;-82
2023/04/04 10:26:59;;;;;;;2.27;1.97;;;;;;;;;;5061451;28;20173;-80
2023/04/04 10:29:26;;;;;;;4.57;2.13;;;;;;;;;;5052382;28;20190;-82
2023/04/04 10:32:04;;;;;;;2.73;2.37;;;;;;;;;;5053394;28;20892;-82
2023/04/04 10:35:00;;;;;;;4.17;2.40;;;;;;;;;;5052553;28;20243;-82
2023/04/04 10:37:27;;;;;;;2.83;2.20;;;;;;;;;;5035189;28;20193;-82
2023/04/04 10:40:09;;;;;;;2.30;1.80;;;;;;;;;;5053037;28;20209;-82
2023/04/04 10:42:42;;;;;;;3.80;2.10;;;;;;;;;;5030010;28;20262;-82
2023/04/04 10:45:16;;;;;;;3.83;2.10;;;;;;;;;;5053023;28;20174;-82
2023/04/04 10:47:43;;;;;;;3.43;1.90;;;;;;;;;;5035510;28;20178;-82
2023/04/04 10:50:11;;;;;;;5.90;2.27;;;;;;;;;;5059096;28;20182;-82
2023/04/04 10:52:38;;;;;;;4.03;2.17;;;;;;;;;;5034883;28;20263;-82
2023/04/04 10:55:06;;;;;;;2.50;1.97;;;;;;;;;;5035548;28;20243;-81
2023/04/04 10:57:33;;;;;;;3.50;2.20;;;;;;;;;;5055144;28;20285;-82
2023/04/04 11:00:08;;;;;;;3.23;2.30;;;;;;;;;;5065120;28;20204;-83
2023/04/04 11:02:44;;;;;;;4.77;2.23;;;;;;;;;;5052637;28;20224;-81
2023/04/04 11:05:24;;;;;;;3.83;2.20;;;;;;;;;;5054280;28;20184;-82
2023/04/04 11:07:59;;;;;;;5.07;2.53;;;;;;;;;;5016335;28;20253;-82
2023/04/04 11:10:30;;;;;;;2.43;2.10;;;;;;;;;;5051109;28;20440;-82
2023/04/04 11:13:03;;;;;;;3.50;2.50;;;;;;;;;;5038706;28;20204;-82
2023/04/04 11:15:44;;;;;;;4.27;2.50;;;;;;;;;;5053147;28;20181;-81
2023/04/04 11:18:12;;;;;;;4.03;2.20;;;;;;;;;;5052268;28;20185;-82
2023/04/04 11:20:44;;;;;;;5.70;2.20;;;;;;;;;;5028447;28;20209;-82
2023/04/04 11:23:21;;;;;;;2.83;2.20;;;;;;;;;;5045968;28;20182;-81
2023/04/04 11:25:55;;;;;;;4.57;2.40;;;;;;;;;;5051081;28;20243;-81
2023/04/04 11:28:33;;;;;;;5.73;2.03;;;;;;;;;;5034752;28;20201;-82
2023/04/04 11:31:21;;;;;;;2.53;2.00;;;;;;;;;;5034611;28;20214;-81
2023/04/04 11:33:54;;;;;;;3.67;2.20;;;;;;;;;;5050307;28;20212;-81
2023/04/04 11:36:36;;;;;;;4.97;2.33;;;;;;;;;;5051889;28;20178;-82
2023/04/04 11:39:06;;;;;;;4.63;2.27;;;;;;;;;;5050491;28;20205;-82
2023/04/04 11:42:06;;;;;;;3.77;2.30;;;;;;;;;;5052012;28;20618;-82
2023/04/04 11:44:53;;;;;;;3.63;2.40;;;;;;;;;;5037865;28;20288;-81
2023/04/04 11:47:24;;;;;;;4.00;2.60;;;;;;;;;;5020845;28;20175;-82
2023/04/04 11:49:51;;;;;;;3.70;2.40;;;;;;;;;;5050701;28;20211;-82
2023/04/04 11:52:17;;;;;;;4.67;2.43;;;;;;;;;;5049490;28;20218;-82
2023/04/04 11:54:45;;;;;;;4.87;2.23;;;;;;;;;;5050188;28;20212;-82
2023/04/04 11:57:12;;;;;;;4.80;2.40;;;;;;;;;;5046946;28;20237;-82
2023/04/04 11:59:42;;;;;;;5.30;2.40;;;;;;;;;;5050552;28;20247;-82
2023/04/04 12:02:09;;;;;;;4.43;2.13;;;;;;;;;;5053643;28;20198;-82
2023/04/04 12:04:36;;;;;;;2.93;2.20;;;;;;;;;;5050595;28;20340;-82
2023/04/04 12:07:02;;;;;;;3.17;2.37;;;;;;;;;;5049072;28;20170;-82
2023/04/04 12:09:29;;;;;;;3.40;2.10;;;;;;;;;;5050480;28;20189;-83
2023/04/04 12:11:56;;;;;;;3.73;2.10;;;;;;;;;;5050463;28;20228;-82
2023/04/04 12:14:24;;;;;;;3.07;2.10;;;;;;;;;;5049484;28;20256;-82
2023/04/04 12:16:52;;;;;;;3.90;2.40;;;;;;;;;;5033559;28;20190;-82
2023/04/04 12:19:18;;;;;;;4.17;2.20;;;;;;;;;;5033542;28;20665;-83
2023/04/04 12:21:48;;;;;;;3.60;2.40;;;;;;;;;;5051574;28;20194;-82
2023/04/04 12:24:14;;;;;;;3.60;2.30;;;;;;;;;;5033629;28;20193;-81
2023/04/04 12:26:41;;;;;;;3.70;2.70;;;;;;;;;;5051673;28;20166;-83
2023/04/04 12:29:11;;;;;;;4.17;2.50;;;;;;;;;;5048891;28;20213;-82
2023/04/04 12:31:39;;;;;;;3.87;2.50;;;;;;;;;;5042207;28;20820;-82
2023/04/04 12:34:05;;;;;;;3.23;2.40;;;;;;;;;;5051365;28;20206;-83
2023/04/04 12:36:35;;;;;;;2.50;2.13;;;;;;;;;;5050001;28;20173;-83
2023/04/04 12:39:02;;;;;;;3.00;2.20;;;;;;;;;;5053841;28;20235;-84
2023/04/04 12:41:28;;;;;;;3.03;2.13;;;18.50;33.30;;;;;;5050878;28;20277;-83
2023/04/04 12:44:04;;;;;;;2.53;1.97;;;17.90;34.40;;;;;;5033934;28;20558;-82
2023/04/04 12:46:38;;;;;;;3.40;2.40;;;18.00;34.20;;;;;;5050712;28;20228;-83
2023/04/04 12:49:10;;;;;;;2.80;2.40;;;18.00;33.90;;;;;;5050219;28;20182;-84
2023/04/04 12:51:37;;;;;;;2.23;2.03;;;18.30;34.00;;;;;;5049821;28;20221;-79
2023/04/04 12:54:05;;;;;;;4.13;2.33;;;;;;;;;;5049399;28;20210;-85
2023/04/04 12:56:31;;;;;;;3.63;2.30;;;;;;;;;;5034745;28;20269;-85
2023/04/04 12:59:04;;;;;;;3.77;2.30;;;;;;;;;;5048889;28;20551;-84
2023/04/04 13:01:32;;;;;;;3.80;2.30;;;;;;;;;;5048218;28;20300;-84
2023/04/04 13:04:05;;;;;;;2.63;1.97;;;;;;;;;;5032047;28;20186;-84
2023/04/04 13:06:31;;;;;;;3.53;2.13;;;;;;;;;;5033511;28;20308;-85
2023/04/04 13:08:58;;;;;;;3.87;2.17;;;;;;;;;;5047127;28;20275;-83
2023/04/04 13:11:26;;;;;;;2.97;2.07;;;;;;;;;;5033901;28;20259;-83
2023/04/04 13:14:02;;;;;;;3.47;2.10;;;;;;;;;;5033491;28;20536;-80
2023/04/04 13:16:38;;;;;;;4.30;2.20;;;;;;;;;;5005975;28;20195;-84
2023/04/04 13:19:04;;;;;;;6.03;2.30;;;;;;;;;;5052511;28;20204;-83
2023/04/04 13:21:31;;;;;;;4.07;2.37;;;;;;;;;;5051261;28;20229;-83
2023/04/04 13:23:57;;;;;;;3.90;2.20;;;;;;;;;;5049502;28;20167;-83
2023/04/04 13:26:23;;;;;;;2.60;2.10;;;;;;;;;;5033264;28;20178;-83
2023/04/04 13:28:49;;;;;;;2.50;1.90;;;;;;;;;;5051568;28;20197;-83
2023/04/04 13:31:16;;;;;;;2.63;1.83;;;;;;;;;;5032727;28;20250;-83
2023/04/04 13:33:42;;;;;;;2.00;1.80;;;;;;;;;;5049074;28;20274;-84
2023/04/04 13:36:08;;;;;;;2.83;2.00;;;;;;;;;;5048821;28;20713;-83
2023/04/04 13:38:34;;;;;;;2.90;2.00;;;;;;;;;;5064687;28;20255;-83
2023/04/04 13:41:01;;;;;;;3.40;2.20;;;;;;;;;;5050528;28;20275;-83
2023/04/04 13:43:27;;;;;;;2.00;1.80;;;;;;;;;;5050030;28;20181;-83
2023/04/04 13:45:54;;;;;;;3.30;2.20;;;;;;;;;;5048882;28;20198;-83
2023/04/04 13:48:20;;;;;;;4.07;2.10;;;;;;;;;;5049049;28;20214;-83
2023/04/04 13:50:50;;;;;;;3.30;2.20;;;;;;;;;;5052325;28;20210;-83
2023/04/04 13:53:19;;;;;;;3.20;2.00;;;;;;;;;;5050068;28;20180;-83
2023/04/04 13:55:45;;;;;;;3.93;2.40;;;;;;;;;;5049243;28;20562;-83
2023/04/04 13:58:12;;;;;;;4.57;2.10;;;;;;;;;;5048566;28;20192;-84
2023/04/04 14:00:39;;;;;;;3.13;1.97;;;;;;;;;;5040558;28;20209;-82
2023/04/04 14:03:05;;;;;;;3.57;2.17;;;;;;;;;;5032773;28;20233;-82
2023/04/04 14:05:31;;;;;;;2.53;2.17;;;;;;;;;;5049944;28;20208;-82
2023/04/04 14:07:57;;;;;;;2.47;2.07;;;;;;;;;;5051144;28;20181;-83
2023/04/04 14:10:24;;;;;;;3.67;2.33;;;;;;;;;;5050270;28;20264;-83
2023/04/04 14:12:50;;;;;;;3.97;2.20;;;;;;;;;;5049570;28;20603;-83
2023/04/04 14:15:16;;;;;;;2.33;1.93;;;;;;;;;;5049967;28;20205;-82
2023/04/04 14:17:42;;;;;;;2.67;2.00;;;;;;;;;;5032424;28;20222;-82
2023/04/04 14:20:09;;;;;;;2.87;2.20;;;;;;;;;;5050022;28;20654;-83
2023/04/04 14:22:35;;;;;;;2.20;2.00;;;;;;;;;;5047416;28;20204;-83
2023/04/04 14:25:03;;;;;;;2.70;2.27;;;;;;;;;;5042993;28;20192;-83
2023/04/04 14:27:29;;;;;;;3.43;2.20;;;;;;;;;;5046994;28;20273;-83
2023/04/04 14:29:55;;;;;;;2.67;1.80;;;;;;;;;;5065068;28;20265;-83
2023/04/04 14:32:21;;;;;;;2.63;1.90;;;;;;;;;;5048821;28;20673;-83
2023/04/04 14:34:48;;;;;;;5.63;4.40;;;;;;;;;;5050944;28;20170;-83
2023/04/04 14:37:15;;;;;;;3.47;2.90;;;;;;;;;;5033028;28;20289;-83
2023/04/04 14:39:42;;;;;;;3.43;2.10;;;;;;;;;;5031699;28;20205;-83
2023/04/04 14:42:08;;;;;;;3.20;2.30;;;;;;;;;;5032424;28;20206;-83
2023/04/04 14:44:34;;;;;;;2.30;2.00;;;;;;;;;;5032726;28;20680;-83
2023/04/04 14:47:00;;;;;;;2.80;1.90;;;;;;;;;;5047672;28;20192;-83